createdAt,value
2023-01-31T00:01:40.072Z,89.37
2023-01-31T00:04:09.658Z,88.87
2023-01-31T00:06:40.234Z,89.39
2023-01-31T00:09:09.093Z,89.01
2023-01-31T00:11:36.305Z,88.69
2023-01-31T00:14:04.877Z,88.69
2023-01-31T00:16:31.998Z,88.20
2023-01-31T00:18:58.712Z,89.34
2023-01-31T00:21:29.943Z,89.45
2023-01-31T00:23:58.116Z,90.02
2023-01-31T00:26:30.556Z,90.04
2023-01-31T00:28:58.431Z,89.46
2023-01-31T00:31:27.591Z,89.02
2023-01-31T00:33:55.850Z,89.22
2023-01-31T00:36:25.626Z,88.74
2023-01-31T00:38:55.467Z,88.10
2023-01-31T00:41:23.678Z,86.98
2023-01-31T00:43:51.148Z,85.89
2023-01-31T00:46:20.443Z,84.25
2023-01-31T00:48:47.290Z,83.17
2023-01-31T00:51:13.909Z,83.02
2023-01-31T00:53:40.567Z,82.06
2023-01-31T00:56:10.606Z,81.96
2023-01-31T00:58:39.932Z,80.88
2023-01-31T01:01:17.179Z,80.45
2023-01-31T01:03:44.873Z,80.06
2023-01-31T01:06:12.299Z,79.54
2023-01-31T01:08:40.508Z,77.77
2023-01-31T01:11:09.735Z,78.16
2023-01-31T01:13:37.384Z,77.21
2023-01-31T01:16:12.727Z,76.54
2023-01-31T01:18:40.074Z,76.99
2023-01-31T01:21:12.485Z,77.14
2023-01-31T01:23:40.869Z,77.00
2023-01-31T01:26:14.867Z,77.21
2023-01-31T01:28:41.515Z,77.26
2023-01-31T01:31:10.628Z,76.69
2023-01-31T01:33:37.315Z,76.41
2023-01-31T01:36:06.402Z,76.14
2023-01-31T01:38:36.492Z,75.53
2023-01-31T01:41:05.000Z,75.89
2023-01-31T01:43:55.552Z,76.62
2023-01-31T01:46:31.817Z,75.76
2023-01-31T01:49:06.570Z,75.83
2023-01-31T01:51:34.020Z,75.25
2023-01-31T01:54:04.943Z,75.39
2023-01-31T01:56:38.916Z,75.86
2023-01-31T01:59:09.058Z,75.38
2023-01-31T02:01:38.269Z,74.75
2023-01-31T02:04:07.631Z,75.47
2023-01-31T02:06:34.624Z,75.30
2023-01-31T02:09:04.052Z,75.51
2023-01-31T02:11:32.282Z,75.71
2023-01-31T02:14:10.857Z,74.07
2023-01-31T02:16:37.526Z,75.18
2023-01-31T02:19:08.858Z,74.90
2023-01-31T02:22:02.779Z,74.91
2023-01-31T02:24:51.999Z,74.70
2023-01-31T02:27:34.357Z,74.65
2023-01-31T02:30:15.407Z,75.42
2023-01-31T02:32:54.030Z,74.92
2023-01-31T02:35:42.322Z,74.77
2023-01-31T02:38:25.429Z,74.60
2023-01-31T02:41:06.081Z,74.55
2023-01-31T02:44:16.987Z,74.44
2023-01-31T02:46:57.698Z,74.42
2023-01-31T02:49:36.915Z,74.06
2023-01-31T02:52:18.743Z,73.45
2023-01-31T02:55:19.112Z,74.09
2023-01-31T02:57:49.267Z,74.11
2023-01-31T03:00:17.459Z,74.18
2023-01-31T03:02:44.385Z,73.80
2023-01-31T03:05:15.630Z,73.73
2023-01-31T03:07:47.971Z,73.48
2023-01-31T03:10:37.179Z,73.12
2023-01-31T03:13:26.364Z,73.10
2023-01-31T03:16:25.629Z,73.40
2023-01-31T03:18:52.183Z,73.23
2023-01-31T03:21:28.540Z,73.33
2023-01-31T03:23:57.393Z,73.46
2023-01-31T03:26:26.038Z,73.61
2023-01-31T03:28:57.257Z,73.17
2023-01-31T03:31:29.695Z,73.27
2023-01-31T03:34:02.085Z,73.18
2023-01-31T03:36:56.003Z,73.26
2023-01-31T03:39:37.868Z,73.21
2023-01-31T03:42:13.508Z,72.83
2023-01-31T03:44:43.107Z,72.91
2023-01-31T03:47:33.197Z,72.66
2023-01-31T03:50:06.556Z,72.89
2023-01-31T03:52:38.467Z,73.03
2023-01-31T03:55:17.105Z,73.35
2023-01-31T03:57:49.004Z,73.40
2023-01-31T04:00:19.021Z,73.56
2023-01-31T04:02:52.767Z,73.05
2023-01-31T04:05:24.885Z,74.15
2023-01-31T04:07:51.507Z,73.72
2023-01-31T04:10:19.750Z,74.65
2023-01-31T04:12:47.084Z,74.45
2023-01-31T04:15:14.334Z,74.84
2023-01-31T04:17:40.865Z,74.83
2023-01-31T04:20:09.669Z,74.88
2023-01-31T04:22:36.233Z,74.92
2023-01-31T04:25:03.503Z,75.96
2023-01-31T04:27:30.026Z,75.67
2023-01-31T04:29:56.619Z,76.07
2023-01-31T04:32:25.925Z,76.33
2023-01-31T04:34:52.465Z,76.92
2023-01-31T04:37:19.023Z,76.76
2023-01-31T04:39:45.542Z,77.56
2023-01-31T04:42:12.251Z,78.01
2023-01-31T04:44:39.198Z,78.44
2023-01-31T04:47:05.788Z,78.84
2023-01-31T04:49:32.993Z,78.68
2023-01-31T04:51:59.628Z,79.03
2023-01-31T04:54:26.261Z,80.06
2023-01-31T04:56:52.854Z,81.11
2023-01-31T04:59:19.407Z,81.00
2023-01-31T05:01:45.936Z,81.36
2023-01-31T05:04:12.773Z,82.08
2023-01-31T05:06:39.356Z,82.76
2023-01-31T05:09:06.669Z,83.39
2023-01-31T05:11:33.376Z,84.36
2023-01-31T05:13:59.964Z,84.95
2023-01-31T05:16:27.560Z,85.56
2023-01-31T05:18:54.239Z,86.33
2023-01-31T05:21:20.880Z,86.24
2023-01-31T05:23:47.802Z,86.02
2023-01-31T05:26:14.427Z,85.65
2023-01-31T05:28:41.925Z,85.19
2023-01-31T05:31:09.131Z,84.98
2023-01-31T05:33:36.296Z,84.88
2023-01-31T05:36:03.847Z,83.82
2023-01-31T05:38:31.253Z,83.77
2023-01-31T05:40:57.884Z,83.64
2023-01-31T05:43:24.407Z,84.22
2023-01-31T05:45:51.034Z,84.24
2023-01-31T05:48:17.601Z,83.53
2023-01-31T05:50:44.222Z,84.07
2023-01-31T05:53:11.222Z,83.92
2023-01-31T05:55:38.138Z,83.03
2023-01-31T05:58:04.730Z,82.64
2023-01-31T06:00:31.346Z,82.80
2023-01-31T06:02:59.717Z,82.85
2023-01-31T06:05:27.213Z,82.36
2023-01-31T06:07:53.948Z,82.24
2023-01-31T06:10:21.226Z,82.01
2023-01-31T06:12:48.151Z,81.99
2023-01-31T06:15:14.802Z,81.34
2023-01-31T06:17:41.365Z,80.09
2023-01-31T06:20:08.620Z,80.21
2023-01-31T06:22:35.176Z,79.95
2023-01-31T06:25:01.868Z,79.77
2023-01-31T06:27:32.149Z,79.46
2023-01-31T06:30:00.798Z,78.88
2023-01-31T06:32:27.401Z,79.72
2023-01-31T06:34:54.023Z,79.31
2023-01-31T06:37:20.643Z,78.04
2023-01-31T06:39:47.186Z,76.85
2023-01-31T06:42:13.824Z,77.28
2023-01-31T06:44:40.451Z,77.04
2023-01-31T06:47:07.056Z,76.69
2023-01-31T06:49:33.609Z,75.84
2023-01-31T06:52:00.170Z,76.09
2023-01-31T06:54:26.814Z,76.62
2023-01-31T06:56:53.798Z,76.22
2023-01-31T06:59:20.444Z,75.77
2023-01-31T07:01:47.070Z,76.21
2023-01-31T07:04:13.900Z,75.92
2023-01-31T07:06:40.667Z,76.15
2023-01-31T07:09:07.684Z,73.97
2023-01-31T07:11:34.363Z,73.29
2023-01-31T07:14:00.925Z,73.90
2023-01-31T07:16:27.585Z,73.73
2023-01-31T07:18:55.124Z,72.46
2023-01-31T07:21:23.273Z,72.72
2023-01-31T07:23:51.019Z,72.37
2023-01-31T07:26:18.295Z,72.23
2023-01-31T07:28:44.888Z,72.24
2023-01-31T07:31:13.785Z,72.57
2023-01-31T07:33:41.192Z,72.69
2023-01-31T07:36:08.774Z,73.21
2023-01-31T07:38:35.550Z,72.29
2023-01-31T07:41:04.170Z,71.75
2023-01-31T07:43:32.599Z,71.93
2023-01-31T07:45:59.491Z,71.66
2023-01-31T07:48:26.216Z,71.19
2023-01-31T07:50:59.448Z,71.86
2023-01-31T07:53:28.672Z,69.86
2023-01-31T07:55:57.429Z,70.82
2023-01-31T07:58:24.082Z,70.25
2023-01-31T08:01:12.114Z,68.80
2023-01-31T08:03:38.668Z,68.35
2023-01-31T08:06:13.148Z,68.10
2023-01-31T08:08:42.274Z,67.97
2023-01-31T08:11:08.841Z,67.04
2023-01-31T08:13:35.868Z,67.23
2023-01-31T08:16:04.117Z,66.78
2023-01-31T08:18:31.054Z,66.13
2023-01-31T08:20:58.344Z,65.44
2023-01-31T08:23:25.117Z,66.79
2023-01-31T08:25:51.680Z,64.26
2023-01-31T08:28:18.244Z,65.32
2023-01-31T08:30:52.916Z,63.75
2023-01-31T08:33:26.168Z,64.36
2023-01-31T08:35:53.275Z,64.41
2023-01-31T08:38:20.083Z,62.92
2023-01-31T08:40:46.916Z,62.61
2023-01-31T08:43:13.924Z,62.14
2023-01-31T08:45:40.930Z,63.79
2023-01-31T08:48:07.687Z,67.19
2023-01-31T08:50:35.000Z,64.85
2023-01-31T08:53:03.791Z,61.73
2023-01-31T08:55:31.861Z,60.73
2023-01-31T08:58:00.365Z,64.62
2023-01-31T09:00:28.072Z,60.38
2023-01-31T09:02:56.863Z,58.60
2023-01-31T09:05:25.167Z,58.22
2023-01-31T09:07:51.811Z,56.53
2023-01-31T09:10:19.603Z,56.17
2023-01-31T09:12:46.702Z,53.91
2023-01-31T09:15:13.383Z,52.87
2023-01-31T09:17:40.913Z,51.20
2023-01-31T09:20:10.201Z,52.75
2023-01-31T09:22:37.287Z,50.41
2023-01-31T09:25:04.874Z,47.65
2023-01-31T09:27:32.189Z,47.52
2023-01-31T09:29:58.855Z,44.42
2023-01-31T09:32:25.538Z,44.00
2023-01-31T09:34:52.200Z,42.76
2023-01-31T09:37:18.876Z,41.98
2023-01-31T09:39:45.465Z,40.37
2023-01-31T09:42:36.806Z,41.26
2023-01-31T09:45:11.887Z,39.15
2023-01-31T09:47:46.807Z,38.75
2023-01-31T09:50:46.251Z,38.50
2023-01-31T09:53:15.104Z,36.62
2023-01-31T09:55:55.097Z,39.08
2023-01-31T09:58:49.616Z,34.72
2023-01-31T10:01:24.323Z,35.53
2023-01-31T10:04:29.770Z,37.29
2023-01-31T10:06:56.248Z,40.56
2023-01-31T10:09:45.191Z,42.92
2023-01-31T10:12:23.556Z,42.43
2023-01-31T10:14:55.970Z,40.51
2023-01-31T10:17:38.529Z,39.38
2023-01-31T10:20:23.159Z,37.19
2023-01-31T10:22:57.594Z,33.22
2023-01-31T10:25:32.403Z,35.30
2023-01-31T10:28:09.818Z,34.13
2023-01-31T10:31:08.611Z,33.03
2023-01-31T10:33:52.846Z,31.35
2023-01-31T10:36:29.436Z,31.60
2023-01-31T10:39:05.283Z,34.54
2023-01-31T10:41:41.176Z,35.60
2023-01-31T10:44:17.934Z,34.00
2023-01-31T10:46:47.609Z,31.31
2023-01-31T10:49:15.433Z,30.49
2023-01-31T10:52:17.069Z,31.83
2023-01-31T10:55:15.942Z,33.08
2023-01-31T10:57:43.108Z,36.08
2023-01-31T11:00:23.369Z,35.69
2023-01-31T11:02:50.133Z,36.58
2023-01-31T11:05:21.008Z,35.48
2023-01-31T11:07:48.623Z,34.27
2023-01-31T11:10:50.778Z,32.67
2023-01-31T11:13:23.509Z,32.19
2023-01-31T11:15:53.770Z,33.31
2023-01-31T11:18:34.598Z,29.76
2023-01-31T11:21:03.613Z,30.57
2023-01-31T11:23:34.025Z,29.55
2023-01-31T11:26:01.077Z,27.98
2023-01-31T11:28:35.797Z,28.83
2023-01-31T11:31:05.340Z,28.53
2023-01-31T11:33:44.478Z,29.64
2023-01-31T11:36:23.905Z,30.72
2023-01-31T11:38:51.380Z,33.35
2023-01-31T11:41:26.593Z,35.64
2023-01-31T11:44:23.184Z,32.48
2023-01-31T11:46:56.876Z,31.48
2023-01-31T11:49:32.651Z,30.42
2023-01-31T11:52:12.925Z,28.11
2023-01-31T11:54:43.979Z,26.56
2023-01-31T11:57:26.083Z,26.90
2023-01-31T11:59:57.384Z,27.22
2023-01-31T12:02:39.973Z,25.66
2023-01-31T12:05:16.095Z,24.94
2023-01-31T12:07:53.351Z,26.99
2023-01-31T12:10:34.467Z,26.39
2023-01-31T12:13:18.854Z,28.24
2023-01-31T12:16:01.007Z,28.34
2023-01-31T12:18:46.399Z,27.46
2023-01-31T12:21:24.845Z,26.30
2023-01-31T12:24:03.084Z,26.60
2023-01-31T12:26:43.831Z,26.59
2023-01-31T12:29:25.772Z,26.31
2023-01-31T12:32:24.718Z,27.24
2023-01-31T12:35:10.258Z,28.42
2023-01-31T12:37:53.425Z,28.50
2023-01-31T12:40:40.531Z,28.73
2023-01-31T12:43:41.069Z,29.62
2023-01-31T12:46:13.513Z,30.67
2023-01-31T12:49:06.992Z,31.25
2023-01-31T12:51:33.536Z,33.07
2023-01-31T12:54:11.898Z,32.90
2023-01-31T12:57:03.168Z,34.37
2023-01-31T12:59:56.756Z,35.01
2023-01-31T13:02:43.943Z,35.65
2023-01-31T13:05:22.715Z,34.83
2023-01-31T13:07:58.111Z,36.87
2023-01-31T13:10:35.549Z,37.17
2023-01-31T13:13:03.236Z,38.21
2023-01-31T13:15:50.964Z,39.87
2023-01-31T13:18:17.948Z,41.29
2023-01-31T13:20:50.204Z,43.01
2023-01-31T13:23:42.813Z,42.13
2023-01-31T13:26:18.999Z,41.27
2023-01-31T13:28:54.805Z,39.11
2023-01-31T13:31:27.133Z,38.56
2023-01-31T13:34:09.060Z,39.32
2023-01-31T13:36:59.829Z,39.85
2023-01-31T13:39:34.765Z,41.05
2023-01-31T13:42:01.605Z,42.23
2023-01-31T13:44:28.170Z,44.02
2023-01-31T13:47:16.768Z,43.96
2023-01-31T13:49:55.383Z,42.81
2023-01-31T13:52:31.942Z,44.45
2023-01-31T13:55:21.617Z,45.11
2023-01-31T13:58:03.715Z,44.79
2023-01-31T14:00:41.067Z,45.39
2023-01-31T14:03:14.681Z,46.81
2023-01-31T14:05:41.218Z,45.56
2023-01-31T14:08:26.356Z,46.49
2023-01-31T14:11:27.367Z,47.19
2023-01-31T14:14:08.729Z,48.56
2023-01-31T14:16:37.303Z,49.99
2023-01-31T14:19:21.746Z,50.77
2023-01-31T14:22:03.255Z,52.05
2023-01-31T14:24:53.132Z,51.33
2023-01-31T14:27:39.495Z,52.41
2023-01-31T14:30:06.089Z,51.19
2023-01-31T14:32:38.566Z,52.46
2023-01-31T14:35:47.831Z,52.66
2023-01-31T14:38:23.384Z,53.45
2023-01-31T14:41:19.187Z,52.95
2023-01-31T14:44:29.345Z,54.65
2023-01-31T14:47:30.866Z,54.75
2023-01-31T14:50:11.565Z,53.71
2023-01-31T14:52:55.925Z,53.90
2023-01-31T14:55:28.105Z,54.71
2023-01-31T14:58:17.892Z,54.42
2023-01-31T15:00:55.206Z,55.25
2023-01-31T15:04:01.141Z,55.63
2023-01-31T15:06:40.658Z,55.31
2023-01-31T15:09:18.306Z,56.42
2023-01-31T15:11:47.319Z,57.43
2023-01-31T15:14:36.500Z,56.83
2023-01-31T15:17:09.886Z,57.79
2023-01-31T15:19:46.826Z,58.71
2023-01-31T15:22:17.076Z,58.18
2023-01-31T15:24:51.471Z,60.30
2023-01-31T15:27:24.719Z,59.27
2023-01-31T15:30:15.839Z,59.79
2023-01-31T15:33:02.906Z,61.20
2023-01-31T15:35:37.221Z,59.18
2023-01-31T15:38:25.012Z,60.77
2023-01-31T15:41:22.900Z,61.41
2023-01-31T15:43:55.367Z,60.50
2023-01-31T15:46:29.739Z,61.85
2023-01-31T15:48:57.591Z,62.74
2023-01-31T15:51:24.964Z,62.92
2023-01-31T15:54:06.302Z,62.61
2023-01-31T15:56:37.375Z,62.93
2023-01-31T15:59:12.728Z,63.77
2023-01-31T16:01:39.786Z,63.76
2023-01-31T16:04:06.584Z,63.48
2023-01-31T16:06:36.097Z,63.98
2023-01-31T16:09:05.111Z,65.22
2023-01-31T16:11:34.202Z,65.29
2023-01-31T16:14:07.647Z,65.16
2023-01-31T16:16:36.114Z,66.45
2023-01-31T16:19:03.825Z,67.19
2023-01-31T16:21:48.493Z,67.78
2023-01-31T16:24:17.437Z,68.41
2023-01-31T16:27:01.760Z,68.66
2023-01-31T16:29:47.307Z,69.43
2023-01-31T16:32:37.001Z,70.24
2023-01-31T16:35:25.023Z,70.38
2023-01-31T16:38:07.960Z,70.95
2023-01-31T16:40:45.585Z,71.06
2023-01-31T16:43:29.961Z,71.33
2023-01-31T16:46:03.215Z,72.64
2023-01-31T16:48:32.912Z,73.23
2023-01-31T16:51:20.564Z,72.99
2023-01-31T16:54:09.874Z,73.73
2023-01-31T16:56:36.506Z,73.51
2023-01-31T16:59:03.084Z,74.26
2023-01-31T17:01:33.695Z,74.33
2023-01-31T17:04:00.240Z,74.33
2023-01-31T17:06:27.276Z,73.84
2023-01-31T17:08:54.328Z,74.08
2023-01-31T17:11:40.923Z,74.50
2023-01-31T17:14:08.242Z,74.56
2023-01-31T17:16:34.831Z,74.08
2023-01-31T17:19:01.480Z,74.07
2023-01-31T17:21:29.178Z,73.87
2023-01-31T17:23:55.746Z,74.25
2023-01-31T17:26:23.547Z,75.12
2023-01-31T17:29:00.817Z,74.79
2023-01-31T17:31:29.598Z,75.27
2023-01-31T17:33:56.611Z,75.80
2023-01-31T17:36:23.495Z,75.99
2023-01-31T17:38:51.830Z,76.81
2023-01-31T17:41:20.688Z,76.65
2023-01-31T17:43:47.312Z,76.40
2023-01-31T17:46:15.788Z,76.83
2023-01-31T17:48:42.654Z,77.22
2023-01-31T17:51:09.470Z,76.27
2023-01-31T17:53:47.725Z,76.26
2023-01-31T17:56:16.547Z,76.09
2023-01-31T17:58:43.112Z,76.24
2023-01-31T18:01:10.861Z,75.91
2023-01-31T18:03:37.655Z,75.54
2023-01-31T18:06:06.216Z,75.77
2023-01-31T18:08:33.048Z,75.65
2023-01-31T18:11:15.004Z,76.32
2023-01-31T18:13:43.152Z,76.45
2023-01-31T18:16:13.153Z,76.03
2023-01-31T18:18:40.625Z,76.01
2023-01-31T18:21:16.597Z,75.67
2023-01-31T18:23:43.637Z,76.02
2023-01-31T18:26:11.365Z,75.71
2023-01-31T18:28:38.049Z,75.74
2023-01-31T18:31:10.469Z,75.85
2023-01-31T18:33:37.642Z,75.01
2023-01-31T18:36:06.043Z,75.87
2023-01-31T18:38:32.919Z,76.33
2023-01-31T18:41:00.303Z,75.72
2023-01-31T18:43:29.730Z,76.14
2023-01-31T18:45:56.362Z,75.67
2023-01-31T18:48:22.975Z,75.29
2023-01-31T18:50:49.635Z,75.21
2023-01-31T18:53:16.207Z,75.61
2023-01-31T18:55:42.764Z,76.11
2023-01-31T18:58:09.379Z,75.70
2023-01-31T19:00:36.022Z,75.47
2023-01-31T19:03:02.654Z,75.08
2023-01-31T19:05:29.318Z,75.08
2023-01-31T19:07:57.027Z,74.97
2023-01-31T19:10:23.655Z,74.85
2023-01-31T19:12:50.188Z,74.88
2023-01-31T19:15:16.792Z,74.63
2023-01-31T19:17:43.351Z,74.03
2023-01-31T19:20:10.755Z,73.83
2023-01-31T19:22:37.336Z,72.78
2023-01-31T19:25:05.535Z,73.21
2023-01-31T19:27:32.135Z,73.03
2023-01-31T19:29:59.902Z,72.38
2023-01-31T19:32:29.097Z,72.45
2023-01-31T19:34:55.731Z,71.28
2023-01-31T19:37:22.315Z,70.66
2023-01-31T19:39:49.115Z,68.98
2023-01-31T19:42:15.704Z,67.88
2023-01-31T19:44:42.267Z,67.05
2023-01-31T19:47:08.886Z,67.80
2023-01-31T19:49:35.424Z,68.07
2023-01-31T19:52:02.108Z,68.66
2023-01-31T19:54:28.656Z,69.32
2023-01-31T19:56:55.250Z,69.93
2023-01-31T19:59:21.810Z,70.66
2023-01-31T20:01:48.413Z,70.96
2023-01-31T20:04:15.011Z,71.03
2023-01-31T20:06:41.720Z,71.46
2023-01-31T20:09:09.711Z,71.49
2023-01-31T20:11:37.689Z,71.60
2023-01-31T20:14:04.654Z,72.87
2023-01-31T20:16:31.414Z,73.42
2023-01-31T20:19:00.802Z,73.50
2023-01-31T20:21:27.648Z,74.46
2023-01-31T20:23:54.267Z,75.17
2023-01-31T20:26:22.818Z,76.38
2023-01-31T20:28:49.862Z,76.24
2023-01-31T20:31:17.580Z,77.35
2023-01-31T20:33:44.291Z,78.65
2023-01-31T20:36:11.607Z,79.45
2023-01-31T20:38:38.982Z,80.47
2023-01-31T20:41:08.503Z,81.78
2023-01-31T20:43:35.392Z,81.38
2023-01-31T20:46:10.638Z,82.89
2023-01-31T20:48:38.329Z,83.02
2023-01-31T20:51:06.226Z,84.13
2023-01-31T20:53:33.380Z,83.67
2023-01-31T20:56:05.767Z,84.53
2023-01-31T20:58:35.046Z,84.79
2023-01-31T21:01:05.425Z,85.65
2023-01-31T21:03:33.364Z,86.81
2023-01-31T21:06:00.792Z,86.01
2023-01-31T21:08:28.618Z,87.52
2023-01-31T21:10:57.463Z,88.30
2023-01-31T21:13:27.915Z,88.86
2023-01-31T21:15:56.813Z,88.48
2023-01-31T21:18:26.259Z,88.59
2023-01-31T21:20:52.849Z,87.31
2023-01-31T21:23:19.473Z,87.63
2023-01-31T21:25:46.064Z,89.51
2023-01-31T21:28:12.645Z,89.08
2023-01-31T21:30:39.291Z,90.39
2023-01-31T21:33:05.967Z,90.70
2023-01-31T21:35:32.675Z,90.89
2023-01-31T21:37:59.277Z,90.38
2023-01-31T21:40:25.954Z,91.35
2023-01-31T21:42:54.133Z,92.04
2023-01-31T21:45:39.777Z,92.36
2023-01-31T21:48:29.179Z,92.81
2023-01-31T21:50:56.850Z,91.56
2023-01-31T21:53:23.505Z,91.91
2023-01-31T21:55:50.114Z,92.27
2023-01-31T21:58:18.768Z,91.59
2023-01-31T22:00:45.403Z,91.30
2023-01-31T22:03:12.032Z,92.07
2023-01-31T22:05:38.683Z,92.64
2023-01-31T22:08:05.455Z,92.71
2023-01-31T22:10:32.310Z,92.32
2023-01-31T22:12:58.917Z,92.67
2023-01-31T22:15:25.545Z,92.29
2023-01-31T22:17:52.740Z,92.39
2023-01-31T22:20:19.622Z,91.82
2023-01-31T22:22:47.159Z,91.69
2023-01-31T22:25:13.935Z,91.93
2023-01-31T22:27:40.621Z,92.15
2023-01-31T22:30:16.237Z,91.58
2023-01-31T22:32:43.598Z,91.34
2023-01-31T22:35:10.492Z,92.07
2023-01-31T22:37:37.185Z,91.80
2023-01-31T22:40:04.110Z,92.17
2023-01-31T22:42:30.738Z,91.67
2023-01-31T22:44:57.259Z,91.87
2023-01-31T22:47:24.611Z,91.79
2023-01-31T22:49:51.418Z,91.95
2023-01-31T22:52:18.025Z,92.36
2023-01-31T22:54:44.613Z,92.46
2023-01-31T22:57:11.216Z,92.53
2023-01-31T22:59:37.791Z,93.13
2023-01-31T23:02:04.516Z,94.08
2023-01-31T23:04:31.127Z,93.08
2023-01-31T23:06:57.732Z,93.89
2023-01-31T23:09:24.410Z,94.04
2023-01-31T23:11:50.950Z,94.58
2023-01-31T23:14:17.548Z,94.45
2023-01-31T23:17:02.292Z,94.98
2023-01-31T23:19:28.939Z,95.28
2023-01-31T23:21:55.524Z,95.80
2023-01-31T23:24:22.162Z,94.92
2023-01-31T23:26:48.895Z,94.35
2023-01-31T23:29:15.635Z,93.83
2023-01-31T23:31:42.345Z,93.52
2023-01-31T23:34:08.994Z,92.47
2023-01-31T23:36:35.654Z,92.44
2023-01-31T23:39:02.295Z,92.12
2023-01-31T23:41:28.963Z,91.94
2023-01-31T23:43:55.601Z,91.46
2023-01-31T23:46:22.214Z,91.36
2023-01-31T23:48:48.823Z,91.00
2023-01-31T23:51:15.392Z,91.39
2023-01-31T23:53:41.972Z,90.76
2023-01-31T23:56:08.561Z,90.25
2023-01-31T23:58:35.142Z,89.29
